Time;durP1;ratioP1;P1;durP2;ratioP2;P2;SDS_P1;SDS_P2;PMS_P1;PMS_P2;Temp;Humidity;BMP_temperature;BMP_pressure;BME280_temperature;BME280_humidity;BME280_pressure;Samples;Min_cycle;Max_cycle;Signal;HPM_P1;HPM_P2
2022/03/16 00:00:24;;;;;;;18.92;17.00;;;7.80;99.90;;;;;;5033374;28;20191;-57
2022/03/16 00:02:50;;;;;;;20.45;18.45;;;7.90;99.90;;;;;;5033254;28;20180;-56
2022/03/16 00:05:17;;;;;;;19.15;17.17;;;7.90;99.90;;;;;;5033113;28;20183;-57
2022/03/16 00:07:43;;;;;;;21.35;19.25;;;7.90;99.90;;;;;;5033505;28;20630;-58
2022/03/16 00:10:09;;;;;;;19.90;17.77;;;7.90;99.90;;;;;;5033320;28;20192;-57
2022/03/16 00:12:36;;;;;;;21.25;17.27;;;7.90;99.90;;;;;;5033567;28;20171;-57
2022/03/16 00:15:02;;;;;;;22.00;18.42;;;7.80;99.90;;;;;;5033224;28;20180;-57
2022/03/16 00:17:28;;;;;;;18.17;16.30;;;7.80;99.90;;;;;;5033147;28;20179;-57
2022/03/16 00:19:53;;;;;;;20.27;18.17;;;7.80;99.90;;;;;;5033520;28;20172;-58
2022/03/16 00:22:19;;;;;;;19.83;17.83;;;7.80;99.90;;;;;;5033269;28;20192;-58
2022/03/16 00:24:44;;;;;;;18.98;17.08;;;7.70;99.90;;;;;;5033256;28;20198;-56
2022/03/16 00:27:10;;;;;;;18.20;16.40;;;7.80;99.90;;;;;;5033197;28;20199;-57
2022/03/16 00:29:36;;;;;;;19.23;16.95;;;7.70;99.90;;;;;;5033142;28;20247;-57
2022/03/16 00:32:02;;;;;;;18.88;16.90;;;7.70;99.90;;;;;;5033029;28;20199;-58
2022/03/16 00:34:27;;;;;;;17.85;16.08;;;7.60;99.90;;;;;;5033021;28;20260;-57
2022/03/16 00:36:53;;;;;;;18.77;16.88;;;7.50;99.90;;;;;;5033090;28;20309;-57
2022/03/16 00:39:19;;;;;;;18.67;16.83;;;7.70;99.90;;;;;;5033132;28;20183;-57
2022/03/16 00:41:44;;;;;;;18.23;16.45;;;7.70;99.90;;;;;;5033040;28;20175;-56
2022/03/16 00:44:10;;;;;;;17.90;16.20;;;7.60;99.90;;;;;;5033008;28;20172;-57
2022/03/16 00:46:36;;;;;;;21.10;17.85;;;7.60;99.90;;;;;;5032944;28;20694;-57
2022/03/16 00:49:03;;;;;;;18.75;16.85;;;7.60;99.90;;;;;;5033153;28;20164;-55
2022/03/16 00:51:29;;;;;;;18.70;16.83;;;7.50;99.90;;;;;;5033022;28;20186;-57
2022/03/16 00:53:55;;;;;;;19.17;17.05;;;7.60;99.90;;;;;;5032965;28;20178;-57
2022/03/16 00:56:21;;;;;;;18.55;16.75;;;7.60;99.90;;;;;;5032839;28;20298;-57
2022/03/16 00:58:47;;;;;;;19.13;17.23;;;7.70;99.90;;;;;;5032859;28;20255;-57
2022/03/16 01:01:13;;;;;;;19.17;17.13;;;7.60;99.90;;;;;;5032876;28;20189;-57
2022/03/16 01:03:42;;;;;;;19.10;17.00;;;7.60;99.90;;;;;;5032934;28;20233;-55
2022/03/16 01:06:15;;;;;;;19.15;17.15;;;7.70;99.90;;;;;;5032914;28;20180;-57
2022/03/16 01:08:42;;;;;;;19.88;17.85;;;7.70;99.90;;;;;;5032922;28;20202;-57
2022/03/16 01:11:08;;;;;;;19.58;16.95;;;7.70;99.90;;;;;;5032860;28;20194;-57
2022/03/16 01:13:34;;;;;;;21.55;17.67;;;7.60;99.90;;;;;;5032678;28;20176;-57
2022/03/16 01:16:00;;;;;;;20.05;18.13;;;7.60;99.90;;;;;;5032786;28;20724;-57
2022/03/16 01:18:25;;;;;;;19.95;18.05;;;7.60;99.90;;;;;;5036167;28;20175;-57
2022/03/16 01:20:51;;;;;;;20.10;18.00;;;7.50;99.90;;;;;;5036656;28;20238;-58
2022/03/16 01:23:17;;;;;;;19.98;17.98;;;7.50;99.90;;;;;;5036606;28;20176;-57
2022/03/16 01:25:42;;;;;;;20.65;18.55;;;7.50;99.90;;;;;;5036433;28;20553;-57
2022/03/16 01:28:08;;;;;;;20.05;18.02;;;7.40;99.90;;;;;;5035076;28;20179;-57
2022/03/16 01:30:33;;;;;;;19.88;17.88;;;7.40;99.90;;;;;;5036105;28;20186;-57
2022/03/16 01:32:59;;;;;;;19.98;17.83;;;7.30;99.90;;;;;;5036328;28;20179;-57
2022/03/16 01:35:25;;;;;;;20.42;18.33;;;7.20;99.90;;;;;;5036401;28;20564;-57
2022/03/16 01:37:50;;;;;;;19.50;17.60;;;7.20;99.90;;;;;;5036258;28;20641;-57
2022/03/16 01:40:16;;;;;;;20.67;18.55;;;7.20;99.90;;;;;;5036029;28;20624;-58
2022/03/16 01:42:42;;;;;;;20.63;18.52;;;7.10;99.90;;;;;;5036000;28;20182;-57
2022/03/16 01:45:08;;;;;;;21.30;19.20;;;7.20;99.90;;;;;;5035912;28;20187;-57
2022/03/16 01:47:34;;;;;;;21.30;19.15;;;7.10;99.90;;;;;;5036225;28;20183;-58
2022/03/16 01:49:59;;;;;;;23.27;19.48;;;7.20;99.90;;;;;;5035983;28;20176;-57
2022/03/16 01:52:27;;;;;;;22.13;19.73;;;7.10;99.90;;;;;;5036197;28;20186;-58
2022/03/16 01:54:53;;;;;;;21.88;19.52;;;7.10;99.90;;;;;;5035632;28;20652;-56
2022/03/16 01:57:19;;;;;;;22.83;19.15;;;7.10;99.90;;;;;;5035644;28;20238;-57
2022/03/16 01:59:46;;;;;;;22.10;19.50;;;7.10;99.90;;;;;;5035605;28;20699;-57
2022/03/16 02:02:12;;;;;;;21.33;19.30;;;7.00;99.90;;;;;;5035652;28;20187;-57
2022/03/16 02:04:39;;;;;;;22.33;20.13;;;7.10;99.90;;;;;;5035791;28;20676;-57
2022/03/16 02:07:05;;;;;;;21.92;19.63;;;7.10;99.90;;;;;;5035611;28;20179;-56
2022/03/16 02:09:31;;;;;;;22.88;20.48;;;7.00;99.90;;;;;;5035707;28;20325;-57
2022/03/16 02:11:57;;;;;;;22.55;20.20;;;7.00;99.90;;;;;;5035505;28;20206;-56
2022/03/16 02:14:23;;;;;;;21.35;19.13;;;7.00;99.90;;;;;;5035576;28;20184;-57
2022/03/16 02:16:49;;;;;;;22.10;19.90;;;7.00;99.90;;;;;;5035475;28;20222;-57
2022/03/16 02:19:15;;;;;;;22.55;20.25;;;7.00;99.90;;;;;;5035464;28;20305;-56
2022/03/16 02:21:44;;;;;;;21.92;19.58;;;6.90;99.90;;;;;;5035308;28;20257;-57
2022/03/16 02:24:10;;;;;;;23.75;21.25;;;6.90;99.90;;;;;;5035215;28;20171;-57
2022/03/16 02:26:36;;;;;;;23.23;20.50;;;6.90;99.90;;;;;;5035138;28;20187;-57
2022/03/16 02:29:02;;;;;;;21.88;19.63;;;7.00;99.90;;;;;;5035028;28;20171;-57
2022/03/16 02:31:27;;;;;;;23.95;21.42;;;7.00;99.90;;;;;;5034141;28;20263;-56
2022/03/16 02:33:54;;;;;;;24.77;20.80;;;6.90;99.90;;;;;;5035385;28;20270;-57
2022/03/16 02:36:19;;;;;;;21.83;19.58;;;6.90;99.90;;;;;;5034915;28;20208;-57
2022/03/16 02:38:45;;;;;;;23.58;21.23;;;6.90;99.90;;;;;;5034968;28;20191;-57
2022/03/16 02:41:11;;;;;;;23.45;21.05;;;6.90;99.90;;;;;;5034885;28;20183;-57
2022/03/16 02:43:37;;;;;;;23.20;20.83;;;6.80;99.90;;;;;;5034999;28;20534;-57
2022/03/16 02:46:03;;;;;;;24.38;21.83;;;6.80;99.90;;;;;;5034942;28;20240;-54
2022/03/16 02:48:29;;;;;;;24.80;21.23;;;6.80;99.90;;;;;;5034862;28;20184;-57
2022/03/16 02:50:55;;;;;;;22.77;20.48;;;6.70;99.90;;;;;;5034815;28;20174;-56
2022/03/16 02:53:21;;;;;;;24.10;21.52;;;6.70;99.90;;;;;;5034755;28;20180;-57
2022/03/16 02:55:48;;;;;;;23.10;20.67;;;6.70;99.90;;;;;;5034668;28;20200;-55
2022/03/16 02:58:15;;;;;;;23.52;21.02;;;6.70;99.90;;;;;;5034813;28;20198;-57
2022/03/16 03:00:41;;;;;;;23.77;21.23;;;6.60;99.90;;;;;;5034665;28;20168;-57
2022/03/16 03:03:07;;;;;;;24.25;20.65;;;6.60;99.90;;;;;;5034657;28;20273;-57
2022/03/16 03:05:33;;;;;;;25.00;21.05;;;6.60;99.90;;;;;;5034588;28;20251;-56
2022/03/16 03:07:59;;;;;;;23.23;20.77;;;6.60;99.90;;;;;;5034469;28;20176;-58
2022/03/16 03:10:26;;;;;;;22.80;20.45;;;6.60;99.90;;;;;;5034367;28;20198;-58
2022/03/16 03:12:52;;;;;;;23.88;21.30;;;6.70;99.90;;;;;;5034578;28;20215;-56
2022/03/16 03:15:18;;;;;;;23.85;21.10;;;6.60;99.90;;;;;;5034214;28;20607;-57
2022/03/16 03:17:44;;;;;;;24.38;21.27;;;6.60;99.90;;;;;;5034370;28;20661;-57
2022/03/16 03:20:11;;;;;;;23.10;20.35;;;6.60;99.90;;;;;;5034110;28;20624;-57
2022/03/16 03:22:37;;;;;;;22.95;20.63;;;6.60;99.90;;;;;;5034191;28;20179;-57
2022/03/16 03:25:03;;;;;;;23.10;20.80;;;6.60;99.90;;;;;;5033973;28;20176;-56
2022/03/16 03:27:33;;;;;;;25.67;21.65;;;6.60;99.90;;;;;;5033944;28;20190;-55
2022/03/16 03:29:59;;;;;;;23.33;20.83;;;6.60;99.90;;;;;;5034135;28;20246;-56
2022/03/16 03:32:25;;;;;;;22.80;20.45;;;6.70;99.90;;;;;;5034071;28;20684;-57
2022/03/16 03:34:51;;;;;;;22.13;19.75;;;6.60;99.90;;;;;;5034034;28;20267;-57
2022/03/16 03:37:20;;;;;;;22.15;19.88;;;6.60;99.90;;;;;;5032450;28;20273;-56
2022/03/16 03:39:46;;;;;;;22.90;20.33;;;6.50;99.90;;;;;;5033186;28;20637;-58
2022/03/16 03:42:12;;;;;;;23.45;20.40;;;6.50;99.90;;;;;;5034007;28;20210;-57
2022/03/16 03:44:38;;;;;;;24.10;21.50;;;6.60;99.90;;;;;;5033866;28;20230;-57
2022/03/16 03:47:08;;;;;;;23.88;21.30;;;6.60;99.90;;;;;;5033745;28;20188;-57
2022/03/16 03:49:35;;;;;;;23.52;20.95;;;6.50;99.90;;;;;;5033872;28;20529;-56
2022/03/16 03:52:01;;;;;;;22.45;20.10;;;6.60;99.90;;;;;;5033509;28;20178;-57
2022/03/16 03:54:28;;;;;;;23.65;20.50;;;6.70;99.90;;;;;;5034011;28;20576;-57
2022/03/16 03:56:54;;;;;;;23.67;21.30;;;6.70;99.90;;;;;;5033523;28;20216;-57
2022/03/16 03:59:20;;;;;;;22.83;20.33;;;6.70;99.90;;;;;;5033571;28;20176;-55
2022/03/16 04:01:46;;;;;;;22.30;19.95;;;6.60;99.90;;;;;;5033576;28;20178;-56
2022/03/16 04:04:12;;;;;;;22.40;20.13;;;6.70;99.90;;;;;;5033416;28;20172;-57
2022/03/16 04:06:37;;;;;;;21.73;19.48;;;6.60;99.90;;;;;;5032093;28;20202;-57
2022/03/16 04:09:04;;;;;;;22.95;19.73;;;6.70;99.90;;;;;;5033298;28;20180;-57
2022/03/16 04:11:30;;;;;;;23.70;18.92;;;6.70;99.90;;;;;;5033789;28;20289;-57
2022/03/16 04:13:56;;;;;;;21.23;18.95;;;6.80;99.90;;;;;;5033319;28;20175;-57
2022/03/16 04:16:21;;;;;;;21.83;18.38;;;6.90;99.90;;;;;;5032124;28;20673;-56
2022/03/16 04:18:47;;;;;;;21.17;18.95;;;6.90;99.90;;;;;;5033291;28;20185;-57
2022/03/16 04:21:13;;;;;;;19.38;17.48;;;6.90;99.90;;;;;;5033192;28;20180;-55
2022/03/16 04:23:38;;;;;;;20.38;18.27;;;6.90;99.90;;;;;;5033627;28;20183;-56
2022/03/16 04:26:04;;;;;;;20.77;18.77;;;6.90;99.90;;;;;;5033364;28;20180;-57
2022/03/16 04:28:29;;;;;;;20.38;18.38;;;6.90;99.90;;;;;;5033344;28;20183;-57
2022/03/16 04:30:55;;;;;;;21.13;18.05;;;6.80;99.90;;;;;;5033306;28;20172;-57
2022/03/16 04:33:21;;;;;;;21.08;18.80;;;7.00;99.90;;;;;;5033108;28;20183;-57
2022/03/16 04:35:46;;;;;;;20.95;18.77;;;7.00;99.90;;;;;;5032844;28;20574;-57
2022/03/16 04:38:12;;;;;;;19.67;17.65;;;7.00;99.90;;;;;;5033166;28;20207;-57
2022/03/16 04:40:37;;;;;;;20.00;17.60;;;7.10;99.90;;;;;;5032868;28;20660;-58
2022/03/16 04:43:03;;;;;;;20.20;18.05;;;7.10;99.90;;;;;;5033076;28;20189;-58
2022/03/16 04:45:29;;;;;;;19.90;17.90;;;7.20;99.90;;;;;;5033061;28;20652;-57
2022/03/16 04:47:54;;;;;;;18.88;16.92;;;7.10;99.90;;;;;;5031737;28;20328;-57
2022/03/16 04:50:20;;;;;;;19.13;17.20;;;7.00;99.90;;;;;;5032877;28;20211;-56
2022/03/16 04:52:48;;;;;;;19.77;17.77;;;6.90;99.90;;;;;;5037194;28;20633;-57
2022/03/16 04:55:15;;;;;;;20.40;18.17;;;6.90;99.90;;;;;;5036977;28;20176;-56
2022/03/16 04:57:41;;;;;;;20.25;18.17;;;6.90;99.90;;;;;;5035943;28;20552;-57
2022/03/16 05:00:08;;;;;;;18.90;17.10;;;6.90;99.90;;;;;;5036913;28;20179;-57
2022/03/16 05:02:34;;;;;;;20.52;17.67;;;7.00;99.90;;;;;;5036777;28;20206;-57
2022/03/16 05:05:00;;;;;;;20.38;18.20;;;7.00;99.90;;;;;;5036656;28;20238;-57
2022/03/16 05:07:26;;;;;;;20.00;18.00;;;7.00;99.90;;;;;;5036854;28;20187;-57
2022/03/16 05:09:51;;;;;;;19.65;17.83;;;7.10;99.90;;;;;;5036782;28;20195;-57
2022/03/16 05:12:17;;;;;;;20.20;18.15;;;7.10;99.90;;;;;;5036657;28;20206;-57
2022/03/16 05:14:43;;;;;;;20.35;17.83;;;7.10;99.90;;;;;;5036572;28;20183;-57
2022/03/16 05:17:08;;;;;;;19.10;17.38;;;7.10;99.90;;;;;;5036467;28;20219;-57
2022/03/16 05:19:34;;;;;;;19.92;17.85;;;7.10;99.90;;;;;;5036401;28;20176;-57
2022/03/16 05:22:01;;;;;;;19.42;17.35;;;7.10;99.90;;;;;;5036232;28;20192;-57
2022/03/16 05:24:26;;;;;;;19.88;17.77;;;7.00;99.90;;;;;;5036434;28;20230;-55
2022/03/16 05:26:52;;;;;;;20.13;18.13;;;7.00;99.90;;;;;;5036478;28;20186;-58
2022/03/16 05:29:18;;;;;;;19.42;17.42;;;7.00;99.90;;;;;;5036318;28;20180;-57
2022/03/16 05:31:44;;;;;;;19.30;17.35;;;7.10;99.90;;;;;;5036104;28;20233;-56
2022/03/16 05:34:10;;;;;;;19.92;17.90;;;7.00;99.90;;;;;;5036087;28;20187;-57
2022/03/16 05:36:36;;;;;;;20.02;18.05;;;7.00;99.90;;;;;;5036281;28;20680;-57
2022/03/16 05:39:03;;;;;;;19.33;17.42;;;6.90;99.90;;;;;;5036291;28;20179;-57
2022/03/16 05:41:29;;;;;;;19.77;17.73;;;7.00;99.90;;;;;;5036224;28;20180;-57
2022/03/16 05:43:55;;;;;;;19.48;17.42;;;7.00;99.90;;;;;;5036026;28;20190;-57
2022/03/16 05:46:21;;;;;;;19.90;17.83;;;7.00;99.90;;;;;;5035889;28;20184;-57
2022/03/16 05:48:47;;;;;;;19.80;17.80;;;7.10;99.90;;;;;;5035811;28;20207;-57
2022/03/16 05:51:12;;;;;;;19.95;17.80;;;7.00;99.90;;;;;;5035836;28;20534;-57
2022/03/16 05:53:38;;;;;;;19.63;17.60;;;7.00;99.90;;;;;;5036210;28;20280;-58
2022/03/16 05:56:05;;;;;;;19.77;17.88;;;7.10;99.90;;;;;;5035620;28;20211;-57
2022/03/16 05:58:30;;;;;;;20.13;18.00;;;7.00;99.90;;;;;;5034643;28;20195;-57
2022/03/16 06:00:56;;;;;;;20.45;18.35;;;7.00;99.90;;;;;;5034171;28;20287;-58
2022/03/16 06:03:22;;;;;;;21.23;18.08;;;7.00;99.90;;;;;;5034400;28;20203;-58
2022/03/16 06:05:47;;;;;;;20.02;17.95;;;7.00;99.90;;;;;;5035063;28;20254;-58
2022/03/16 06:08:13;;;;;;;19.67;17.65;;;7.00;99.90;;;;;;5034310;28;20183;-58
2022/03/16 06:10:39;;;;;;;21.02;18.83;;;7.00;99.90;;;;;;5035601;28;20214;-59
2022/03/16 06:13:06;;;;;;;20.15;17.52;;;7.00;99.90;;;;;;5035508;28;20645;-59
2022/03/16 06:15:42;;;;;;;19.58;17.58;;;7.00;99.90;;;;;;5035191;28;20289;-59
2022/03/16 06:18:09;;;;;;;20.35;18.17;;;7.00;99.90;;;;;;5035332;28;20191;-59
2022/03/16 06:20:35;;;;;;;19.95;17.90;;;7.00;99.90;;;;;;5035419;28;20175;-59
2022/03/16 06:23:02;;;;;;;19.77;17.70;;;7.00;99.90;;;;;;5035327;28;20206;-59
2022/03/16 06:25:27;;;;;;;20.42;18.23;;;6.90;99.90;;;;;;5035271;28;20278;-59
2022/03/16 06:27:53;;;;;;;20.75;17.48;;;6.90;99.90;;;;;;5035227;28;20334;-59
2022/03/16 06:30:20;;;;;;;20.23;18.20;;;6.90;99.90;;;;;;5035007;28;20203;-59
2022/03/16 06:32:47;;;;;;;21.95;18.00;;;6.90;99.90;;;;;;5035282;28;20192;-59
2022/03/16 06:35:14;;;;;;;20.70;18.15;;;6.90;99.90;;;;;;5034990;28;20176;-59
2022/03/16 06:37:41;;;;;;;19.95;17.02;;;7.00;99.90;;;;;;5035152;28;20175;-59
2022/03/16 06:40:07;;;;;;;21.17;17.33;;;6.90;99.90;;;;;;5034982;28;20667;-58
2022/03/16 06:42:33;;;;;;;19.77;17.13;;;6.90;99.90;;;;;;5033631;28;20711;-58
2022/03/16 06:44:59;;;;;;;20.17;18.08;;;6.90;99.90;;;;;;5033569;28;20265;-58
2022/03/16 06:47:25;;;;;;;20.83;17.15;;;7.00;99.90;;;;;;5034966;28;20180;-58
2022/03/16 06:49:50;;;;;;;20.58;18.27;;;7.00;99.90;;;;;;5034896;28;20171;-58
2022/03/16 06:52:16;;;;;;;22.35;18.02;;;7.10;99.90;;;;;;5034600;28;20644;-58
2022/03/16 06:54:41;;;;;;;20.70;18.38;;;7.10;99.90;;;;;;5034719;28;20192;-57
2022/03/16 06:57:07;;;;;;;20.02;17.88;;;7.10;99.90;;;;;;5034422;28;20215;-58
2022/03/16 06:59:33;;;;;;;20.50;18.10;;;7.10;99.90;;;;;;5034446;28;20261;-60
2022/03/16 07:01:58;;;;;;;19.75;17.65;;;7.10;99.90;;;;;;5034480;28;20226;-60
2022/03/16 07:04:24;;;;;;;20.40;17.77;;;7.20;99.90;;;;;;5034524;28;20176;-60
2022/03/16 07:06:50;;;;;;;20.85;18.48;;;7.20;99.90;;;;;;5034534;28;20702;-58
2022/03/16 07:09:16;;;;;;;21.17;18.98;;;7.20;99.90;;;;;;5034503;28;20282;-60
2022/03/16 07:11:41;;;;;;;19.98;17.90;;;7.30;99.90;;;;;;5034380;28;20183;-60
2022/03/16 07:16:51;;;;;;;20.42;17.38;;;7.30;99.90;;;;;;5034230;28;20280;-60
2022/03/16 07:19:17;;;;;;;20.45;17.98;;;7.30;99.90;;;;;;5033148;28;20269;-59
2022/03/16 07:21:43;;;;;;;20.45;18.20;;;7.50;99.90;;;;;;5034315;28;20263;-59
2022/03/16 07:24:08;;;;;;;20.35;17.98;;;7.60;99.90;;;;;;5034255;28;20187;-59
2022/03/16 07:26:34;;;;;;;20.38;18.17;;;7.70;99.90;;;;;;5032782;28;20752;-59
2022/03/16 07:29:00;;;;;;;20.25;18.13;;;7.80;99.90;;;;;;5034228;28;20263;-60
2022/03/16 07:31:26;;;;;;;19.70;17.77;;;7.80;99.90;;;;;;5034089;28;20187;-59
2022/03/16 07:33:51;;;;;;;18.88;17.00;;;7.90;99.90;;;;;;5033972;28;20628;-59
2022/03/16 07:36:17;;;;;;;19.98;17.88;;;7.90;99.90;;;;;;5033887;28;20199;-59
2022/03/16 07:38:43;;;;;;;19.55;17.55;;;8.00;99.90;;;;;;5033857;28;20184;-59
2022/03/16 07:41:09;;;;;;;19.25;17.02;;;8.00;99.90;;;;;;5034017;28;20463;-61
2022/03/16 07:43:34;;;;;;;18.33;16.42;;;8.10;99.90;;;;;;5033928;28;20172;-59
2022/03/16 07:46:00;;;;;;;19.10;17.17;;;8.10;99.90;;;;;;5016223;28;20210;-60
2022/03/16 07:48:26;;;;;;;19.27;17.23;;;8.20;99.90;;;;;;5033783;28;20321;-59
2022/03/16 07:50:51;;;;;;;19.85;17.77;;;8.40;99.90;;;;;;5033633;28;20184;-59
2022/03/16 07:53:17;;;;;;;20.65;18.45;;;8.40;99.90;;;;;;5032427;28;20176;-59
2022/03/16 07:55:45;;;;;;;18.90;17.00;;;8.30;99.90;;;;;;5033365;28;20204;-60
2022/03/16 07:58:11;;;;;;;21.02;17.67;;;8.50;99.90;;;;;;5032502;28;20238;-60
2022/03/16 08:00:37;;;;;;;18.48;16.58;;;8.60;99.90;;;;;;5033558;28;20184;-59
2022/03/16 08:03:03;;;;;;;18.65;16.83;;;8.60;99.90;;;;;;5033379;28;20179;-60
2022/03/16 08:05:30;;;;;;;18.50;16.70;;;8.70;99.90;;;;;;5033461;28;20183;-59
2022/03/16 08:07:55;;;;;;;18.40;15.73;;;8.80;99.90;;;;;;5033381;28;20203;-59
2022/03/16 08:10:22;;;;;;;18.35;16.48;;;8.90;99.90;;;;;;5032151;28;20226;-59
2022/03/16 08:12:48;;;;;;;16.80;15.20;;;9.00;99.90;;;;;;5033502;28;20168;-59
2022/03/16 08:15:14;;;;;;;17.75;15.95;;;9.10;99.90;;;;;;5032126;28;20187;-59
2022/03/16 08:17:40;;;;;;;18.13;16.33;;;9.10;99.90;;;;;;5033414;28;20649;-59
2022/03/16 08:20:06;;;;;;;16.90;15.20;;;9.00;99.90;;;;;;5033329;28;20566;-59
2022/03/16 08:22:34;;;;;;;17.38;15.60;;;9.00;99.90;;;;;;5031907;28;20180;-60
2022/03/16 08:25:02;;;;;;;17.20;15.48;;;9.20;99.90;;;;;;5032957;28;20628;-59
2022/03/16 08:27:29;;;;;;;16.42;14.73;;;9.20;99.90;;;;;;5033094;28;20648;-59
2022/03/16 08:29:55;;;;;;;17.05;15.35;;;9.30;99.90;;;;;;5033311;28;20176;-59
2022/03/16 08:32:21;;;;;;;17.13;15.48;;;9.30;99.90;;;;;;5033224;28;20592;-59
2022/03/16 08:34:47;;;;;;;17.67;15.77;;;9.30;99.90;;;;;;5031986;28;20716;-60
2022/03/16 08:37:14;;;;;;;17.95;15.75;;;9.50;99.90;;;;;;5032842;28;20218;-60
2022/03/16 08:39:40;;;;;;;16.67;14.50;;;9.50;99.90;;;;;;5033215;28;20188;-59
2022/03/16 08:42:07;;;;;;;16.90;15.20;;;9.70;99.90;;;;;;5033152;28;20222;-60
2022/03/16 08:44:33;;;;;;;16.02;14.40;;;9.70;99.90;;;;;;5033063;28;20588;-60
2022/03/16 08:46:59;;;;;;;16.02;14.48;;;10.00;99.90;;;;;;5033115;28;20271;-60
2022/03/16 08:49:25;;;;;;;15.35;13.75;;;9.80;99.90;;;;;;5032819;28;20185;-59
2022/03/16 08:51:50;;;;;;;16.50;14.85;;;10.00;99.90;;;;;;5032851;28;20548;-60
2022/03/16 08:54:16;;;;;;;16.65;14.95;;;10.00;99.90;;;;;;5032788;28;20259;-59
2022/03/16 08:56:43;;;;;;;17.13;14.93;;;10.20;99.90;;;;;;5032974;28;20203;-59
2022/03/16 08:59:10;;;;;;;15.05;13.40;;;10.30;99.90;;;;;;5032741;28;20191;-59
2022/03/16 09:01:36;;;;;;;15.73;14.15;;;10.30;99.90;;;;;;5032746;28;20168;-60
2022/03/16 09:04:02;;;;;;;15.63;14.02;;;10.50;99.90;;;;;;5032888;28;20310;-59
2022/03/16 09:06:28;;;;;;;15.55;13.90;;;10.70;99.90;;;;;;5032759;28;20188;-59
2022/03/16 09:08:54;;;;;;;15.40;13.85;;;10.80;99.90;;;;;;5032548;28;20545;-60
2022/03/16 09:11:19;;;;;;;14.45;12.95;;;10.70;99.90;;;;;;5032802;28;20179;-60
2022/03/16 09:13:47;;;;;;;15.45;13.82;;;10.70;99.90;;;;;;5032773;28;20180;-60
2022/03/16 09:16:14;;;;;;;14.30;12.77;;;10.90;99.90;;;;;;5032752;28;20241;-60
2022/03/16 09:18:40;;;;;;;14.27;12.77;;;11.00;99.90;;;;;;5031447;28;20180;-60
2022/03/16 09:21:05;;;;;;;15.07;13.48;;;11.20;99.90;;;;;;5031440;28;20704;-59
2022/03/16 09:23:31;;;;;;;16.30;13.38;;;11.30;99.90;;;;;;5032865;28;20562;-59
2022/03/16 09:26:01;;;;;;;13.85;11.90;;;11.50;99.90;;;;;;5032816;28;20184;-59
2022/03/16 09:28:28;;;;;;;14.05;12.55;;;11.60;99.90;;;;;;5032697;28;20622;-59
2022/03/16 09:30:54;;;;;;;17.38;13.00;;;11.50;99.90;;;;;;5032903;28;20251;-59
2022/03/16 09:33:21;;;;;;;13.98;12.48;;;11.60;99.90;;;;;;5032480;28;20286;-59
2022/03/16 09:35:48;;;;;;;13.43;12.13;;;11.60;99.90;;;;;;5032215;28;20560;-59
2022/03/16 09:38:16;;;;;;;17.55;12.10;;;11.70;99.90;;;;;;5034062;28;20198;-59
2022/03/16 09:40:42;;;;;;;14.52;12.75;;;11.70;99.90;;;;;;5034799;28;20168;-59
2022/03/16 09:43:10;;;;;;;14.25;12.63;;;11.80;99.90;;;;;;5035041;28;20176;-60
2022/03/16 09:46:12;;;;;;;13.95;12.55;;;12.00;99.90;;;;;;5036038;28;20172;-59
2022/03/16 09:48:39;;;;;;;13.45;12.02;;;12.00;99.90;;;;;;5025246;28;20613;-59
2022/03/16 09:51:07;;;;;;;16.23;12.70;;;12.00;99.90;;;;;;5036064;28;20179;-60
2022/03/16 09:53:33;;;;;;;14.75;12.43;;;12.00;99.90;;;;;;5034743;28;20180;-57
2022/03/16 09:55:59;;;;;;;14.20;11.82;;;12.10;99.90;;;;;;5035581;28;20282;-59
2022/03/16 09:58:24;;;;;;;14.68;12.77;;;12.10;99.90;;;;;;5035816;28;20262;-59
2022/03/16 10:00:53;;;;;;;14.02;12.60;;;12.10;99.90;;;;;;5035505;28;20180;-59
2022/03/16 10:03:25;;;;;;;14.80;12.00;;;12.10;99.90;;;;;;5019050;28;20654;-59
2022/03/16 10:05:51;;;;;;;14.13;12.65;;;12.10;99.90;;;;;;5034658;28;20175;-59
2022/03/16 10:08:36;;;;;;;13.65;12.20;;;12.10;99.90;;;;;;5035594;28;20533;-59
2022/03/16 10:14:11;;;;;;;13.07;11.77;;;12.10;99.90;;;;;;5035503;28;20684;-59
2022/03/16 10:19:25;;;;;;;13.40;12.00;;;12.00;99.90;;;;;;5035733;28;20275;-60
2022/03/16 10:22:04;;;;;;;15.07;12.35;;;12.20;99.90;;;;;;5035535;28;20263;-59
2022/03/16 10:24:30;;;;;;;14.50;13.00;;;12.30;99.90;;;;;;5035433;28;20163;-59
2022/03/16 10:26:59;;;;;;;14.18;12.43;;;12.30;99.90;;;;;;5035285;28;20180;-59
2022/03/16 10:29:31;;;;;;;14.65;12.98;;;12.50;99.90;;;;;;5035287;28;20172;-59
2022/03/16 10:32:00;;;;;;;16.70;12.85;;;12.70;99.90;;;;;;5035137;28;20637;-59
2022/03/16 10:34:26;;;;;;;13.05;11.63;;;12.70;99.90;;;;;;5035266;28;20511;-57
2022/03/16 10:36:52;;;;;;;14.93;11.77;;;12.80;99.90;;;;;;5035046;28;20208;-59
2022/03/16 10:39:31;;;;;;;12.98;11.65;;;13.00;99.90;;;;;;5034944;28;20196;-59
2022/03/16 10:47:59;;;;;;;15.40;12.45;;;12.90;99.90;;;;;;5035091;28;20210;-59
2022/03/16 10:50:25;;;;;;;15.25;11.70;;;12.80;99.90;;;;;;5034566;28;20176;-59
2022/03/16 10:52:53;;;;;;;13.05;11.65;;;13.00;99.90;;;;;;5034710;28;20588;-59
2022/03/16 10:55:22;;;;;;;14.30;11.98;;;13.10;99.90;;;;;;5034836;28;20205;-59
2022/03/16 10:57:49;;;;;;;14.20;11.90;;;13.20;99.90;;;;;;5034574;28;20538;-59
2022/03/16 11:00:17;;;;;;;14.23;11.65;;;13.20;99.90;;;;;;5034619;28;20172;-59
2022/03/16 11:02:47;;;;;;;15.63;12.60;;;13.30;99.90;;;;;;5034654;28;20184;-59
2022/03/16 11:05:18;;;;;;;13.85;12.43;;;13.30;99.90;;;;;;5034472;28;20176;-59
2022/03/16 11:07:46;;;;;;;14.57;12.20;;;13.30;99.90;;;;;;5034490;28;20201;-59
2022/03/16 11:10:12;;;;;;;15.93;11.88;;;13.30;99.90;;;;;;5034290;28;20191;-59
2022/03/16 11:15:22;;;;;;;13.95;11.93;;;13.10;99.90;;;;;;5034483;28;20218;-59
2022/03/16 11:17:51;;;;;;;14.63;11.48;;;13.00;99.90;;;;;;5034236;28;20226;-59
2022/03/16 11:20:19;;;;;;;13.60;11.82;;;12.90;99.90;;;;;;5034163;28;20580;-59
2022/03/16 11:26:03;;;;;;;15.95;11.68;;;12.90;99.90;;;;;;5034536;28;20183;-59
2022/03/16 11:28:54;;;;;;;16.40;12.07;;;13.10;99.90;;;;;;5033986;28;20203;-59
2022/03/16 11:31:28;;;;;;;15.90;11.52;;;13.20;99.90;;;;;;5034131;28;20172;-59
2022/03/16 11:33:55;;;;;;;12.85;10.82;;;13.20;99.90;;;;;;5033908;28;20616;-59
2022/03/16 11:36:31;;;;;;;13.95;12.02;;;13.30;99.90;;;;;;5033854;28;20234;-59
2022/03/16 11:39:02;;;;;;;13.65;12.25;;;13.30;99.90;;;;;;5033965;28;20582;-59
2022/03/16 11:41:30;;;;;;;13.98;11.55;;;13.30;99.90;;;;;;5033888;28;20172;-59
2022/03/16 11:44:22;;;;;;;14.07;11.85;;;13.20;99.90;;;;;;5033932;28;20180;-59
2022/03/16 11:46:47;;;;;;;15.05;11.63;;;13.20;99.90;;;;;;5033711;28;20270;-59
2022/03/16 11:49:13;;;;;;;15.30;12.40;;;13.30;99.90;;;;;;5033509;28;20271;-59
2022/03/16 11:51:57;;;;;;;14.77;11.55;;;13.30;99.90;;;;;;5033872;28;20568;-59
2022/03/16 11:54:40;;;;;;;12.68;11.38;;;13.40;99.90;;;;;;5033747;28;20204;-59
2022/03/16 11:57:06;;;;;;;15.00;11.90;;;13.50;99.90;;;;;;5033555;28;20203;-59
2022/03/16 11:59:33;;;;;;;14.80;12.32;;;13.40;99.90;;;;;;5033495;28;20207;-59
2022/03/16 12:02:20;;;;;;;15.20;11.75;;;13.30;99.90;;;;;;5033152;28;20681;-59
2022/03/16 12:04:47;;;;;;;15.65;11.85;;;13.30;99.90;;;;;;5033450;28;20222;-59
2022/03/16 12:07:22;;;;;;;17.15;12.90;;;13.30;99.90;;;;;;5033362;28;20176;-59
2022/03/16 12:09:52;;;;;;;16.30;12.68;;;13.40;99.90;;;;;;5033460;28;20197;-59
2022/03/16 12:15:11;;;;;;;16.92;15.02;;;13.40;99.90;;;;;;5033748;28;20217;-59
2022/03/16 12:17:37;;;;;;;19.10;15.20;;;13.40;99.90;;;;;;5033279;28;20191;-59
2022/03/16 12:20:22;;;;;;;16.65;12.73;;;13.40;99.90;;;;;;5033274;28;20437;-59
2022/03/16 12:22:48;;;;;;;15.88;12.98;;;13.40;99.90;;;;;;5033783;28;20262;-59
2022/03/16 12:25:27;;;;;;;18.40;16.02;;;13.50;99.90;;;;;;5033202;28;20219;-59
2022/03/16 12:30:55;;;;;;;16.95;13.43;;;13.40;99.90;;;;;;5033366;28;20262;-59
2022/03/16 12:33:26;;;;;;;26.05;22.85;;;13.50;99.90;;;;;;5033309;28;20171;-59
2022/03/16 12:35:54;;;;;;;14.05;11.63;;;13.60;99.90;;;;;;5033118;28;20549;-59
2022/03/16 12:38:22;;;;;;;15.90;11.98;;;13.60;99.90;;;;;;5033025;28;20171;-59
2022/03/16 12:43:34;;;;;;;14.65;13.07;;;13.60;99.90;;;;;;5033288;28;20209;-59
2022/03/16 12:46:35;;;;;;;16.45;11.80;;;13.70;99.90;;;;;;5031960;28;20182;-59
2022/03/16 12:49:06;;;;;;;15.93;12.60;;;13.50;99.90;;;;;;5033041;28;20178;-59
2022/03/16 12:51:46;;;;;;;15.40;12.70;;;13.50;99.90;;;;;;5032881;28;20180;-59
2022/03/16 12:54:23;;;;;;;15.15;12.05;;;13.60;99.90;;;;;;5032910;28;20630;-59
2022/03/16 12:56:51;;;;;;;14.15;12.15;;;13.60;99.90;;;;;;5032898;28;20207;-59
2022/03/16 12:59:25;;;;;;;14.75;12.43;;;13.50;99.90;;;;;;5032952;28;20272;-59
2022/03/16 13:01:52;;;;;;;13.95;11.27;;;13.60;99.90;;;;;;5032724;28;20172;-59